createdAt,value
2023-05-19T00:00:08.929Z,366.00
2023-05-19T00:01:09.001Z,368.00
2023-05-19T00:02:09.098Z,370.00
2023-05-19T00:03:09.329Z,369.00
2023-05-19T00:04:09.175Z,371.00
2023-05-19T00:05:09.225Z,374.00
2023-05-19T00:06:09.374Z,374.00
2023-05-19T00:07:09.342Z,375.00
2023-05-19T00:08:09.416Z,375.00
2023-05-19T00:09:09.502Z,375.00
2023-05-19T00:10:09.540Z,375.00
2023-05-19T00:11:09.616Z,373.00
2023-05-19T00:12:09.657Z,373.00
2023-05-19T00:13:09.727Z,374.00
2023-05-19T00:14:09.830Z,371.00
2023-05-19T00:15:09.851Z,369.00
2023-05-19T00:16:09.952Z,368.00
2023-05-19T00:17:09.966Z,368.00
2023-05-19T00:18:10.100Z,369.00
2023-05-19T00:19:10.511Z,368.00
2023-05-19T00:20:10.127Z,370.00
2023-05-19T00:21:10.194Z,371.00
2023-05-19T00:22:10.257Z,370.00
2023-05-19T00:23:10.306Z,371.00
2023-05-19T00:24:10.359Z,372.00
2023-05-19T00:25:10.415Z,373.00
2023-05-19T00:26:10.498Z,373.00
2023-05-19T00:27:10.541Z,373.00
2023-05-19T00:28:10.603Z,373.00
2023-05-19T00:29:10.675Z,371.00
2023-05-19T00:30:10.743Z,369.00
2023-05-19T00:31:10.772Z,372.00
2023-05-19T00:32:10.910Z,373.00
2023-05-19T00:33:10.995Z,370.00
2023-05-19T00:34:10.940Z,369.00
2023-05-19T00:35:11.003Z,370.00
2023-05-19T00:36:11.061Z,370.00
2023-05-19T00:37:11.095Z,368.00
2023-05-19T00:38:11.161Z,371.00
2023-05-19T00:39:11.208Z,374.00
2023-05-19T00:40:11.271Z,375.00
2023-05-19T00:41:11.319Z,374.00
2023-05-19T00:42:11.359Z,375.00
2023-05-19T00:43:11.450Z,373.00
2023-05-19T00:44:11.480Z,371.00
2023-05-19T00:45:11.545Z,370.00
2023-05-19T00:46:11.684Z,375.00
2023-05-19T00:47:11.664Z,378.00
2023-05-19T00:48:11.714Z,380.00
2023-05-19T00:49:11.776Z,380.00
2023-05-19T00:50:11.824Z,379.00
2023-05-19T00:51:11.875Z,379.00
2023-05-19T00:52:11.917Z,378.00
2023-05-19T00:53:11.985Z,377.00
2023-05-19T00:54:12.069Z,378.00
2023-05-19T00:55:12.114Z,380.00
2023-05-19T00:56:12.165Z,379.00
2023-05-19T00:57:12.228Z,378.00
2023-05-19T00:58:12.293Z,380.00
2023-05-19T00:59:12.337Z,379.00
2023-05-19T01:00:12.418Z,380.00
2023-05-19T01:01:12.621Z,382.00
2023-05-19T01:02:12.528Z,382.00
2023-05-19T01:03:12.681Z,381.00
2023-05-19T01:04:12.656Z,379.00
2023-05-19T01:05:12.724Z,377.00
2023-05-19T01:06:12.777Z,376.00
2023-05-19T01:07:12.860Z,379.00
2023-05-19T01:08:12.916Z,381.00
2023-05-19T01:09:12.940Z,377.00
2023-05-19T01:10:13.025Z,379.00
2023-05-19T01:11:13.089Z,379.00
2023-05-19T01:12:13.140Z,378.00
2023-05-19T01:13:13.214Z,377.00
2023-05-19T01:14:13.259Z,379.00
2023-05-19T01:15:13.326Z,378.00
2023-05-19T01:16:13.522Z,378.00
2023-05-19T01:17:13.446Z,377.00
2023-05-19T01:18:13.623Z,375.00
2023-05-19T01:19:13.658Z,376.00
2023-05-19T01:20:13.647Z,378.00
2023-05-19T01:21:13.742Z,378.00
2023-05-19T01:22:13.765Z,377.00
2023-05-19T01:23:13.835Z,378.00
2023-05-19T01:24:13.913Z,377.00
2023-05-19T01:25:13.962Z,374.00
2023-05-19T01:26:14.052Z,374.00
2023-05-19T01:27:14.085Z,372.00
2023-05-19T01:28:14.134Z,371.00
2023-05-19T01:29:14.203Z,369.00
2023-05-19T01:30:14.285Z,370.00
2023-05-19T01:31:14.379Z,374.00
2023-05-19T01:32:14.441Z,374.00
2023-05-19T01:33:14.555Z,375.00
2023-05-19T01:34:14.554Z,373.00
2023-05-19T01:35:14.605Z,375.00
2023-05-19T01:36:14.664Z,374.00
2023-05-19T01:37:14.740Z,372.00
2023-05-19T01:38:14.813Z,372.00
2023-05-19T01:39:14.875Z,371.00
2023-05-19T01:40:14.928Z,371.00
2023-05-19T01:41:14.990Z,372.00
2023-05-19T01:42:15.074Z,369.00
2023-05-19T01:43:15.125Z,373.00
2023-05-19T01:44:15.186Z,376.00
2023-05-19T01:45:15.257Z,375.00
2023-05-19T01:46:15.348Z,373.00
2023-05-19T01:47:15.380Z,371.00
2023-05-19T01:48:15.489Z,371.00
2023-05-19T01:49:15.505Z,370.00
2023-05-19T01:50:15.585Z,370.00
2023-05-19T01:51:15.637Z,371.00
2023-05-19T01:52:15.698Z,373.00
2023-05-19T01:53:15.752Z,374.00
2023-05-19T01:54:15.808Z,377.00
2023-05-19T01:55:15.892Z,377.00
2023-05-19T01:56:15.959Z,379.00
2023-05-19T01:57:16.009Z,378.00
2023-05-19T01:58:16.075Z,376.00
2023-05-19T01:59:16.143Z,376.00
2023-05-19T02:00:16.190Z,375.00
2023-05-19T02:01:16.293Z,372.00
2023-05-19T02:02:16.303Z,372.00
2023-05-19T02:03:16.359Z,373.00
2023-05-19T02:04:16.465Z,374.00
2023-05-19T02:05:16.459Z,374.00
2023-05-19T02:06:16.545Z,371.00
2023-05-19T02:07:16.583Z,372.00
2023-05-19T02:08:16.647Z,373.00
2023-05-19T02:09:16.699Z,376.00
2023-05-19T02:10:16.741Z,376.00
2023-05-19T02:11:16.817Z,375.00
2023-05-19T02:12:16.866Z,377.00
2023-05-19T02:13:16.917Z,376.00
2023-05-19T02:14:16.989Z,380.00
2023-05-19T02:15:17.068Z,378.00
2023-05-19T02:16:17.142Z,379.00
2023-05-19T02:17:17.174Z,381.00
2023-05-19T02:18:17.253Z,378.00
2023-05-19T02:19:17.362Z,379.00
2023-05-19T02:20:17.375Z,380.00
2023-05-19T02:21:17.440Z,382.00
2023-05-19T02:22:17.482Z,384.00
2023-05-19T02:23:17.541Z,383.00
2023-05-19T02:24:17.593Z,384.00
2023-05-19T02:25:17.652Z,383.00
2023-05-19T02:26:17.732Z,385.00
2023-05-19T02:27:17.818Z,387.00
2023-05-19T02:28:17.818Z,388.00
2023-05-19T02:29:17.894Z,391.00
2023-05-19T02:30:17.965Z,393.00
2023-05-19T02:31:18.045Z,390.00
2023-05-19T02:32:18.329Z,391.00
2023-05-19T02:33:18.144Z,388.00
2023-05-19T02:34:18.216Z,389.00
2023-05-19T02:35:18.279Z,387.00
2023-05-19T02:36:18.330Z,389.00
2023-05-19T02:37:18.412Z,387.00
2023-05-19T02:38:18.452Z,389.00
2023-05-19T02:39:18.536Z,389.00
2023-05-19T02:40:18.584Z,390.00
2023-05-19T02:41:18.663Z,390.00
2023-05-19T02:42:18.740Z,391.00
2023-05-19T02:43:18.787Z,390.00
2023-05-19T02:44:18.838Z,386.00
2023-05-19T02:45:18.913Z,388.00
2023-05-19T02:46:19.002Z,387.00
2023-05-19T02:47:19.041Z,388.00
2023-05-19T02:48:19.127Z,386.00
2023-05-19T02:49:19.169Z,386.00
2023-05-19T02:50:19.258Z,384.00
2023-05-19T02:51:19.310Z,384.00
2023-05-19T02:52:19.360Z,384.00
2023-05-19T02:53:19.449Z,384.00
2023-05-19T02:54:19.507Z,387.00
2023-05-19T02:55:19.562Z,386.00
2023-05-19T02:56:19.620Z,384.00
2023-05-19T02:57:19.700Z,384.00
2023-05-19T02:58:19.765Z,384.00
2023-05-19T02:59:19.822Z,384.00
2023-05-19T03:00:19.889Z,387.00
2023-05-19T03:01:19.966Z,387.00
2023-05-19T03:02:20.046Z,385.00
2023-05-19T03:03:20.236Z,386.00
2023-05-19T03:04:20.138Z,385.00
2023-05-19T03:05:20.198Z,387.00
2023-05-19T03:06:20.261Z,386.00
2023-05-19T03:07:20.331Z,384.00
2023-05-19T03:08:20.381Z,384.00
2023-05-19T03:09:20.452Z,385.00
2023-05-19T03:10:20.529Z,385.00
2023-05-19T03:11:20.580Z,386.00
2023-05-19T03:12:20.638Z,384.00
2023-05-19T03:13:20.713Z,383.00
2023-05-19T03:14:20.777Z,381.00
2023-05-19T03:15:20.838Z,382.00
2023-05-19T03:16:20.917Z,380.00
2023-05-19T03:17:21.027Z,376.00
2023-05-19T03:18:21.114Z,376.00
2023-05-19T03:19:21.209Z,384.00
2023-05-19T03:20:21.144Z,389.00
2023-05-19T03:21:21.233Z,388.00
2023-05-19T03:22:21.274Z,385.00
2023-05-19T03:23:21.335Z,384.00
2023-05-19T03:24:21.413Z,385.00
2023-05-19T03:25:21.481Z,383.00
2023-05-19T03:26:21.529Z,384.00
2023-05-19T03:27:21.606Z,384.00
2023-05-19T03:28:21.679Z,385.00
2023-05-19T03:29:21.742Z,384.00
2023-05-19T03:30:21.795Z,381.00
2023-05-19T03:31:21.933Z,382.00
2023-05-19T03:32:22.012Z,381.00
2023-05-19T03:33:22.140Z,381.00
2023-05-19T03:34:22.029Z,382.00
2023-05-19T03:35:22.048Z,382.00
2023-05-19T03:36:22.141Z,383.00
2023-05-19T03:37:22.126Z,384.00
2023-05-19T03:38:22.211Z,383.00
2023-05-19T03:39:22.296Z,381.00
2023-05-19T03:40:22.335Z,378.00
2023-05-19T03:41:22.393Z,380.00
2023-05-19T03:42:22.456Z,376.00
2023-05-19T03:43:22.515Z,374.00
2023-05-19T03:44:22.563Z,375.00
2023-05-19T03:45:22.627Z,377.00
2023-05-19T03:46:22.836Z,377.00
2023-05-19T03:47:22.820Z,376.00
2023-05-19T03:48:22.821Z,376.00
2023-05-19T03:49:22.905Z,376.00
2023-05-19T03:50:22.970Z,378.00
2023-05-19T03:51:23.018Z,382.00
2023-05-19T03:52:23.102Z,385.00
2023-05-19T03:53:23.165Z,382.00
2023-05-19T03:54:23.228Z,382.00
2023-05-19T03:55:23.277Z,381.00
2023-05-19T03:56:23.357Z,380.00
2023-05-19T03:57:23.404Z,380.00
2023-05-19T03:58:23.476Z,381.00
2023-05-19T03:59:23.537Z,383.00
2023-05-19T04:00:23.593Z,384.00
2023-05-19T04:01:23.645Z,383.00
2023-05-19T04:02:23.749Z,382.00
2023-05-19T04:03:23.857Z,383.00
2023-05-19T04:04:23.856Z,378.00
2023-05-19T04:05:23.856Z,380.00
2023-05-19T04:06:23.885Z,381.00
2023-05-19T04:07:23.948Z,382.00
2023-05-19T04:08:24.004Z,383.00
2023-05-19T04:09:24.079Z,382.00
2023-05-19T04:10:24.108Z,380.00
2023-05-19T04:11:24.157Z,380.00
2023-05-19T04:12:24.213Z,381.00
2023-05-19T04:13:24.261Z,381.00
2023-05-19T04:14:24.288Z,378.00
2023-05-19T04:15:24.380Z,377.00
2023-05-19T04:16:24.499Z,377.00
2023-05-19T04:17:24.461Z,378.00
2023-05-19T04:18:25.489Z,377.00
2023-05-19T04:19:24.687Z,378.00
2023-05-19T04:20:24.582Z,380.00
2023-05-19T04:21:24.621Z,380.00
2023-05-19T04:22:24.658Z,381.00
2023-05-19T04:23:24.730Z,381.00
2023-05-19T04:24:24.770Z,383.00
2023-05-19T04:25:24.827Z,381.00
2023-05-19T04:26:24.913Z,381.00
2023-05-19T04:27:24.950Z,381.00
2023-05-19T04:28:24.983Z,381.00
2023-05-19T04:29:25.011Z,381.00
2023-05-19T04:30:25.066Z,381.00
2023-05-19T04:31:25.115Z,381.00
2023-05-19T04:32:25.159Z,379.00
2023-05-19T04:33:25.179Z,380.00
2023-05-19T04:34:25.223Z,380.00
2023-05-19T04:35:25.263Z,381.00
2023-05-19T04:36:25.308Z,382.00
2023-05-19T04:37:25.351Z,382.00
2023-05-19T04:38:25.384Z,381.00
2023-05-19T04:39:25.427Z,380.00
2023-05-19T04:40:25.475Z,382.00
2023-05-19T04:41:25.520Z,381.00
2023-05-19T04:42:25.565Z,381.00
2023-05-19T04:43:25.597Z,379.00
2023-05-19T04:44:25.665Z,380.00
2023-05-19T04:45:25.698Z,379.00
2023-05-19T04:46:25.757Z,378.00
2023-05-19T04:47:25.862Z,378.00
2023-05-19T04:48:25.825Z,379.00
2023-05-19T04:49:25.891Z,380.00
2023-05-19T04:50:25.951Z,381.00
2023-05-19T04:51:26.020Z,380.00
2023-05-19T04:52:26.084Z,378.00
2023-05-19T04:53:26.132Z,379.00
2023-05-19T04:54:26.217Z,380.00
2023-05-19T04:55:26.263Z,380.00
2023-05-19T04:56:26.324Z,381.00
2023-05-19T04:57:26.408Z,380.00
2023-05-19T04:58:26.447Z,381.00
2023-05-19T04:59:26.511Z,379.00
2023-05-19T05:00:26.574Z,379.00
2023-05-19T05:01:26.735Z,380.00
2023-05-19T05:02:26.755Z,380.00
2023-05-19T05:03:26.923Z,383.00
2023-05-19T05:04:26.861Z,383.00
2023-05-19T05:05:26.882Z,382.00
2023-05-19T05:06:26.965Z,381.00
2023-05-19T05:07:27.074Z,382.00
2023-05-19T05:08:27.063Z,383.00
2023-05-19T05:09:27.132Z,382.00
2023-05-19T05:10:27.196Z,383.00
2023-05-19T05:11:27.273Z,380.00
2023-05-19T05:12:27.332Z,379.00
2023-05-19T05:13:27.417Z,379.00
2023-05-19T05:14:27.464Z,380.00
2023-05-19T05:15:27.503Z,380.00
2023-05-19T05:16:27.610Z,380.00
2023-05-19T05:17:27.667Z,378.00
2023-05-19T05:18:27.729Z,377.00
2023-05-19T05:19:27.838Z,379.00
2023-05-19T05:20:27.826Z,377.00
2023-05-19T05:21:27.866Z,376.00
2023-05-19T05:22:27.942Z,378.00
2023-05-19T05:23:28.123Z,378.00
2023-05-19T05:24:28.062Z,377.00
2023-05-19T05:25:28.118Z,374.00
2023-05-19T05:26:28.192Z,374.00
2023-05-19T05:27:28.241Z,376.00
2023-05-19T05:28:28.319Z,374.00
2023-05-19T05:29:28.360Z,372.00
2023-05-19T05:30:28.451Z,373.00
2023-05-19T05:31:28.516Z,373.00
2023-05-19T05:32:28.668Z,371.00
2023-05-19T05:33:28.645Z,372.00
2023-05-19T05:34:28.692Z,371.00
2023-05-19T05:35:28.752Z,371.00
2023-05-19T05:36:28.835Z,369.00
2023-05-19T05:37:28.891Z,371.00
2023-05-19T05:38:28.942Z,374.00
2023-05-19T05:39:28.995Z,372.00
2023-05-19T05:40:29.078Z,372.00
2023-05-19T05:41:29.123Z,369.00
2023-05-19T05:42:29.833Z,371.00
2023-05-19T05:43:29.248Z,369.00
2023-05-19T05:44:29.313Z,369.00
2023-05-19T05:45:29.367Z,369.00
2023-05-19T05:46:29.476Z,370.00
2023-05-19T05:47:29.518Z,371.00
2023-05-19T05:48:29.561Z,371.00
2023-05-19T05:49:29.618Z,371.00
2023-05-19T05:50:29.724Z,374.00
2023-05-19T05:51:29.747Z,374.00
2023-05-19T05:52:29.795Z,375.00
2023-05-19T05:53:29.878Z,374.00
2023-05-19T05:54:29.914Z,373.00
2023-05-19T05:55:30.132Z,375.00
2023-05-19T05:56:30.092Z,373.00
2023-05-19T05:57:30.096Z,373.00
2023-05-19T05:58:30.190Z,374.00
2023-05-19T05:59:30.222Z,373.00
2023-05-19T06:00:30.446Z,373.00
2023-05-19T06:01:30.307Z,372.00
2023-05-19T06:02:30.427Z,375.00
2023-05-19T06:03:30.453Z,373.00
2023-05-19T06:04:30.498Z,372.00
2023-05-19T06:05:30.587Z,370.00
2023-05-19T06:06:30.625Z,370.00
2023-05-19T06:07:30.658Z,374.00
2023-05-19T06:08:30.730Z,374.00
2023-05-19T06:09:30.780Z,372.00
2023-05-19T06:10:30.927Z,372.00
2023-05-19T06:11:30.881Z,370.00
2023-05-19T06:12:30.946Z,373.00
2023-05-19T06:13:31.010Z,373.00
2023-05-19T06:14:31.048Z,372.00
2023-05-19T06:15:31.274Z,369.00
2023-05-19T06:16:31.251Z,372.00
2023-05-19T06:17:31.278Z,371.00
2023-05-19T06:18:31.268Z,370.00
2023-05-19T06:19:31.376Z,368.00
2023-05-19T06:20:31.723Z,369.00
2023-05-19T06:21:31.438Z,369.00
2023-05-19T06:22:31.473Z,369.00
2023-05-19T06:23:31.530Z,372.00
2023-05-19T06:24:31.590Z,373.00
2023-05-19T06:25:31.844Z,372.00
2023-05-19T06:26:31.689Z,372.00
2023-05-19T06:27:33.306Z,372.00
2023-05-19T06:28:31.738Z,371.00
2023-05-19T06:29:31.720Z,371.00
2023-05-19T06:30:31.827Z,371.00
2023-05-19T06:31:31.734Z,372.00
2023-05-19T06:32:31.701Z,374.00
2023-05-19T06:33:31.682Z,375.00
2023-05-19T06:34:31.666Z,372.00
2023-05-19T06:35:31.671Z,369.00
2023-05-19T06:36:31.656Z,370.00
2023-05-19T06:37:31.643Z,369.00
2023-05-19T06:38:31.657Z,370.00
2023-05-19T06:39:31.655Z,371.00
2023-05-19T06:40:31.840Z,372.00
2023-05-19T06:41:31.623Z,371.00
2023-05-19T06:42:31.627Z,372.00
2023-05-19T06:43:31.686Z,373.00
2023-05-19T06:44:31.616Z,371.00
2023-05-19T06:45:31.647Z,371.00
2023-05-19T06:46:31.640Z,371.00
2023-05-19T06:47:31.646Z,369.00
2023-05-19T06:48:31.584Z,370.00
2023-05-19T06:49:31.585Z,372.00
2023-05-19T06:50:31.848Z,372.00
2023-05-19T06:51:31.563Z,370.00
2023-05-19T06:52:31.548Z,370.00
2023-05-19T06:53:31.536Z,369.00
2023-05-19T06:54:31.530Z,370.00
2023-05-19T06:55:31.549Z,373.00
2023-05-19T06:56:31.535Z,375.00
2023-05-19T06:57:31.504Z,375.00
2023-05-19T06:58:31.533Z,378.00
2023-05-19T06:59:31.506Z,377.00
2023-05-19T07:00:31.665Z,376.00
2023-05-19T07:01:31.519Z,377.00
2023-05-19T07:02:31.603Z,377.00
2023-05-19T07:03:31.610Z,374.00
2023-05-19T07:04:31.483Z,374.00
2023-05-19T07:05:31.466Z,375.00
2023-05-19T07:06:31.458Z,377.00
2023-05-19T07:07:31.463Z,377.00
2023-05-19T07:08:31.428Z,377.00
2023-05-19T07:09:31.425Z,376.00
2023-05-19T07:10:31.654Z,377.00
2023-05-19T07:11:31.428Z,376.00
2023-05-19T07:12:31.409Z,373.00
2023-05-19T07:13:31.435Z,374.00
2023-05-19T07:14:31.462Z,375.00
2023-05-19T07:15:31.519Z,374.00
2023-05-19T07:16:31.590Z,372.00
2023-05-19T07:17:31.652Z,369.00
2023-05-19T07:18:31.650Z,368.00
2023-05-19T07:19:31.723Z,370.00
2023-05-19T07:20:31.903Z,372.00
2023-05-19T07:21:31.743Z,368.00
2023-05-19T07:22:31.785Z,366.00
2023-05-19T07:23:31.844Z,365.00
2023-05-19T07:24:31.873Z,364.00
2023-05-19T07:25:31.901Z,365.00
2023-05-19T07:26:31.949Z,367.00
2023-05-19T07:27:31.992Z,367.00
2023-05-19T07:28:32.024Z,366.00
2023-05-19T07:29:32.066Z,370.00
2023-05-19T07:30:32.318Z,373.00
2023-05-19T07:31:32.209Z,375.00
2023-05-19T07:32:32.210Z,373.00
2023-05-19T07:33:32.212Z,372.00
2023-05-19T07:34:32.251Z,371.00
2023-05-19T07:35:32.328Z,371.00
2023-05-19T07:36:32.337Z,370.00
2023-05-19T07:37:32.365Z,370.00
2023-05-19T07:38:32.415Z,370.00
2023-05-19T07:39:32.409Z,371.00
2023-05-19T07:40:32.631Z,373.00
2023-05-19T07:41:33.209Z,373.00
2023-05-19T07:42:32.512Z,372.00
2023-05-19T07:43:32.554Z,372.00
2023-05-19T07:44:32.566Z,372.00
2023-05-19T07:45:32.624Z,370.00
2023-05-19T07:46:32.639Z,371.00
2023-05-19T07:47:32.774Z,369.00
2023-05-19T07:48:32.672Z,368.00
2023-05-19T07:49:32.704Z,369.00
2023-05-19T07:50:32.813Z,366.00
2023-05-19T07:51:32.746Z,363.00
2023-05-19T07:52:32.795Z,365.00
2023-05-19T07:53:32.831Z,366.00
2023-05-19T07:54:32.846Z,365.00
2023-05-19T07:55:32.879Z,366.00
2023-05-19T07:56:32.880Z,367.00
2023-05-19T07:57:32.925Z,367.00
2023-05-19T07:58:32.950Z,365.00
2023-05-19T07:59:32.978Z,367.00
2023-05-19T08:00:33.188Z,367.00
2023-05-19T08:01:33.026Z,367.00
2023-05-19T08:02:33.073Z,367.00
2023-05-19T08:03:33.314Z,367.00
2023-05-19T08:04:33.194Z,365.00
2023-05-19T08:05:33.137Z,366.00
2023-05-19T08:06:33.156Z,367.00
2023-05-19T08:07:33.200Z,369.00
2023-05-19T08:08:33.229Z,369.00
2023-05-19T08:09:33.240Z,371.00
2023-05-19T08:10:33.455Z,371.00
2023-05-19T08:11:33.288Z,371.00
2023-05-19T08:12:33.312Z,372.00
2023-05-19T08:13:33.314Z,373.00
2023-05-19T08:14:33.330Z,372.00
2023-05-19T08:15:33.868Z,372.00
2023-05-19T08:16:33.379Z,372.00
2023-05-19T08:17:33.394Z,374.00
2023-05-19T08:18:33.409Z,376.00
2023-05-19T08:19:33.450Z,376.00
2023-05-19T08:20:33.607Z,373.00
2023-05-19T08:21:33.487Z,372.00
2023-05-19T08:22:33.512Z,373.00
2023-05-19T08:23:33.504Z,374.00
2023-05-19T08:24:33.534Z,373.00
2023-05-19T08:25:33.547Z,372.00
2023-05-19T08:26:35.747Z,371.00
2023-05-19T08:27:33.558Z,374.00
2023-05-19T08:28:33.547Z,373.00
2023-05-19T08:29:33.541Z,372.00
2023-05-19T08:30:33.732Z,373.00
2023-05-19T08:31:33.542Z,372.00
2023-05-19T08:32:33.533Z,370.00
2023-05-19T08:33:33.489Z,369.00
2023-05-19T08:34:33.502Z,367.00
2023-05-19T08:35:33.485Z,368.00
2023-05-19T08:36:33.489Z,370.00
2023-05-19T08:37:34.196Z,374.00
2023-05-19T08:38:33.476Z,375.00
2023-05-19T08:39:33.464Z,374.00
2023-05-19T08:40:33.758Z,374.00
2023-05-19T08:41:33.460Z,376.00
2023-05-19T08:42:33.454Z,378.00
2023-05-19T08:43:33.424Z,378.00
2023-05-19T08:44:33.415Z,379.00
2023-05-19T08:45:33.555Z,379.00
2023-05-19T08:46:33.441Z,380.00
2023-05-19T08:47:33.468Z,378.00
2023-05-19T08:48:33.409Z,379.00
2023-05-19T08:49:33.392Z,378.00
2023-05-19T08:50:33.632Z,375.00
2023-05-19T08:51:33.377Z,374.00
2023-05-19T08:52:33.356Z,374.00
2023-05-19T08:53:34.627Z,377.00
2023-05-19T08:54:33.361Z,378.00
2023-05-19T08:55:33.508Z,376.00
2023-05-19T08:56:33.323Z,378.00
2023-05-19T08:57:33.331Z,376.00
2023-05-19T08:58:33.334Z,375.00
2023-05-19T08:59:33.324Z,373.00
2023-05-19T09:00:33.468Z,377.00
2023-05-19T09:01:33.345Z,377.00
2023-05-19T09:02:33.322Z,376.00
2023-05-19T09:03:33.361Z,372.00
2023-05-19T09:04:33.342Z,371.00
2023-05-19T09:05:33.709Z,370.00
2023-05-19T09:06:33.246Z,367.00
2023-05-19T09:07:33.395Z,369.00
2023-05-19T09:08:33.249Z,372.00
2023-05-19T09:09:33.230Z,372.00
2023-05-19T09:10:33.240Z,373.00
2023-05-19T09:11:33.225Z,373.00
2023-05-19T09:12:33.202Z,374.00
2023-05-19T09:13:33.220Z,371.00
2023-05-19T09:14:33.188Z,371.00
2023-05-19T09:15:33.318Z,370.00
2023-05-19T09:16:33.270Z,371.00
2023-05-19T09:17:33.205Z,372.00
2023-05-19T09:18:33.154Z,373.00
2023-05-19T09:19:33.238Z,374.00
2023-05-19T09:20:33.167Z,374.00
2023-05-19T09:21:33.221Z,375.00
2023-05-19T09:22:33.148Z,374.00
2023-05-19T09:23:33.152Z,374.00
2023-05-19T09:24:33.137Z,374.00
2023-05-19T09:25:33.265Z,377.00
2023-05-19T09:26:33.123Z,377.00
2023-05-19T09:27:33.096Z,378.00
2023-05-19T09:28:33.183Z,378.00
2023-05-19T09:29:33.093Z,379.00
2023-05-19T09:30:33.072Z,379.00
2023-05-19T09:31:33.108Z,383.00
2023-05-19T09:32:33.197Z,385.00
2023-05-19T09:33:33.046Z,385.00
2023-05-19T09:34:33.040Z,382.00
2023-05-19T09:35:33.288Z,380.00
2023-05-19T09:36:33.030Z,379.00
2023-05-19T09:37:33.039Z,378.00
2023-05-19T09:38:33.037Z,377.00
2023-05-19T09:39:33.033Z,376.00
2023-05-19T09:40:33.013Z,375.00
2023-05-19T09:41:33.001Z,374.00
2023-05-19T09:42:32.999Z,376.00
2023-05-19T09:43:33.019Z,373.00
2023-05-19T09:44:32.991Z,371.00
2023-05-19T09:45:33.142Z,370.00
2023-05-19T09:46:33.002Z,367.00
2023-05-19T09:47:32.992Z,369.00
2023-05-19T09:48:32.951Z,367.00
2023-05-19T09:49:33.058Z,366.00
2023-05-19T09:50:32.978Z,371.00
2023-05-19T09:51:32.955Z,373.00
2023-05-19T09:52:32.978Z,373.00
2023-05-19T09:53:32.971Z,371.00
2023-05-19T09:54:32.953Z,371.00
2023-05-19T09:55:33.291Z,378.00
2023-05-19T09:56:32.976Z,377.00
2023-05-19T09:57:32.979Z,375.00
2023-05-19T09:58:32.961Z,377.00
2023-05-19T09:59:33.972Z,373.00
2023-05-19T10:00:33.119Z,373.00
2023-05-19T10:01:33.102Z,373.00
2023-05-19T10:02:33.002Z,372.00
2023-05-19T10:03:33.126Z,373.00
2023-05-19T10:04:33.026Z,371.00
2023-05-19T10:05:33.150Z,370.00
2023-05-19T10:06:32.990Z,370.00
2023-05-19T10:07:32.999Z,367.00
2023-05-19T10:08:33.000Z,367.00
2023-05-19T10:09:32.996Z,365.00
2023-05-19T10:10:33.003Z,362.00
2023-05-19T10:11:32.995Z,362.00
2023-05-19T10:12:33.001Z,366.00
2023-05-19T10:13:33.020Z,368.00
2023-05-19T10:14:33.002Z,368.00
2023-05-19T10:15:36.101Z,371.00
2023-05-19T10:16:34.041Z,370.00
2023-05-19T10:17:33.019Z,368.00
2023-05-19T10:18:33.002Z,370.00
2023-05-19T10:19:33.029Z,369.00
2023-05-19T10:20:33.170Z,369.00
2023-05-19T10:21:33.001Z,368.00
2023-05-19T10:22:32.974Z,368.00
2023-05-19T10:23:32.963Z,366.00
2023-05-19T10:24:32.956Z,370.00
2023-05-19T10:25:33.107Z,370.00
2023-05-19T10:26:32.941Z,369.00
2023-05-19T10:27:32.944Z,372.00
2023-05-19T10:28:32.925Z,372.00
2023-05-19T10:29:32.922Z,372.00
2023-05-19T10:30:32.918Z,370.00
2023-05-19T10:31:32.948Z,371.00
2023-05-19T10:32:33.002Z,371.00
2023-05-19T10:33:32.894Z,370.00
2023-05-19T10:34:32.866Z,370.00
2023-05-19T10:35:32.916Z,368.00
2023-05-19T10:36:32.857Z,367.00
2023-05-19T10:37:32.856Z,367.00
2023-05-19T10:38:32.844Z,365.00
2023-05-19T10:39:32.847Z,364.00
2023-05-19T10:40:32.839Z,365.00
2023-05-19T10:41:32.816Z,364.00
2023-05-19T10:42:32.832Z,363.00
2023-05-19T10:43:32.805Z,364.00
2023-05-19T10:44:32.814Z,364.00
2023-05-19T10:45:32.940Z,365.00
2023-05-19T10:46:32.813Z,366.00
2023-05-19T10:47:32.839Z,364.00
2023-05-19T10:48:32.770Z,365.00
2023-05-19T10:49:32.767Z,368.00
2023-05-19T10:50:32.760Z,369.00
2023-05-19T10:51:32.824Z,370.00
2023-05-19T10:52:32.750Z,373.00
2023-05-19T10:53:32.738Z,372.00
2023-05-19T10:54:32.747Z,369.00
2023-05-19T10:55:32.967Z,369.00
2023-05-19T10:56:32.723Z,372.00
2023-05-19T10:57:32.729Z,374.00
2023-05-19T10:58:32.731Z,374.00
2023-05-19T10:59:32.718Z,372.00
2023-05-19T11:00:32.699Z,374.00
2023-05-19T11:01:32.717Z,374.00
2023-05-19T11:02:32.732Z,372.00
2023-05-19T11:03:32.707Z,369.00
2023-05-19T11:04:32.800Z,370.00
2023-05-19T11:05:32.833Z,371.00
2023-05-19T11:06:32.733Z,369.00
2023-05-19T11:07:32.650Z,369.00
2023-05-19T11:08:32.667Z,374.00
2023-05-19T11:09:39.876Z,374.00
2023-05-19T11:10:33.629Z,377.00
2023-05-19T11:11:33.313Z,376.00
2023-05-19T11:12:32.627Z,376.00
2023-05-19T11:13:32.625Z,375.00
2023-05-19T11:14:32.601Z,373.00
2023-05-19T11:15:32.956Z,372.00
2023-05-19T11:16:32.731Z,371.00
2023-05-19T11:17:33.213Z,367.00
2023-05-19T11:18:32.582Z,367.00
2023-05-19T11:19:32.574Z,369.00
2023-05-19T11:20:32.573Z,372.00
2023-05-19T11:21:32.650Z,371.00
2023-05-19T11:22:32.543Z,370.00
2023-05-19T11:23:33.499Z,371.00
2023-05-19T11:24:32.521Z,368.00
2023-05-19T11:25:32.654Z,371.00
2023-05-19T11:26:32.522Z,369.00
2023-05-19T11:27:32.500Z,371.00
2023-05-19T11:28:32.492Z,373.00
2023-05-19T11:29:34.261Z,373.00
2023-05-19T11:30:32.495Z,371.00
2023-05-19T11:31:32.531Z,369.00
2023-05-19T11:32:32.536Z,368.00
2023-05-19T11:33:32.466Z,370.00
2023-05-19T11:34:32.445Z,370.00
2023-05-19T11:35:34.004Z,368.00
2023-05-19T11:36:32.452Z,368.00
2023-05-19T11:37:32.450Z,365.00
2023-05-19T11:38:32.415Z,366.00
2023-05-19T11:39:32.419Z,364.00
2023-05-19T11:40:32.421Z,364.00
2023-05-19T11:41:32.423Z,363.00
2023-05-19T11:42:32.463Z,362.00
2023-05-19T11:43:32.400Z,364.00
2023-05-19T11:44:32.395Z,362.00
2023-05-19T11:45:32.596Z,360.00
2023-05-19T11:46:32.470Z,360.00
2023-05-19T11:47:42.573Z,360.00
2023-05-19T11:48:33.463Z,359.00
2023-05-19T11:49:32.342Z,360.00
2023-05-19T11:50:32.357Z,360.00
2023-05-19T11:51:32.331Z,362.00
2023-05-19T11:52:32.336Z,363.00
2023-05-19T11:53:34.024Z,362.00
2023-05-19T11:54:32.310Z,365.00
2023-05-19T11:55:32.330Z,366.00
2023-05-19T11:56:32.295Z,365.00
2023-05-19T11:57:32.306Z,365.00
2023-05-19T11:58:32.284Z,364.00
2023-05-19T11:59:33.467Z,364.00
2023-05-19T12:00:32.278Z,364.00
2023-05-19T12:01:32.269Z,367.00
2023-05-19T12:02:32.295Z,363.00
2023-05-19T12:03:32.381Z,363.00
2023-05-19T12:04:32.294Z,360.00
2023-05-19T12:05:34.995Z,359.00
2023-05-19T12:06:33.289Z,360.00
2023-05-19T12:07:32.228Z,359.00
2023-05-19T12:08:32.236Z,359.00
2023-05-19T12:09:32.207Z,360.00
2023-05-19T12:10:32.191Z,360.00
2023-05-19T12:11:32.208Z,360.00
2023-05-19T12:12:32.186Z,361.00
2023-05-19T12:13:32.175Z,362.00
2023-05-19T12:14:32.169Z,364.00
2023-05-19T12:15:32.428Z,360.00
2023-05-19T12:16:33.476Z,364.00
2023-05-19T12:17:32.194Z,365.00
2023-05-19T12:18:32.171Z,367.00
2023-05-19T12:19:32.194Z,366.00
2023-05-19T12:20:32.140Z,367.00
2023-05-19T12:21:34.263Z,371.00
2023-05-19T12:22:32.114Z,370.00
2023-05-19T12:23:32.100Z,371.00
2023-05-19T12:24:32.111Z,368.00
2023-05-19T12:25:32.615Z,366.00
2023-05-19T12:26:32.096Z,365.00
2023-05-19T12:27:33.515Z,365.00
2023-05-19T12:28:32.354Z,367.00